Main page
METAR-TAF:

METAR-TAF

Airports :

Paulatuk (Nora Aliqatchialuk Ruben) Airport

Paulatuk, Northwest Territories, Canada

latitude: 69-21N, longitude: 124-02W, elevation: 6 m

Current weather observation

The report was made 23 hours and 22 minutes ago, at 18:00 UTC
Wind 5 kt from the North
Temperature 4°C
Humidity 75%
Pressure 1016 hPa
Visibility: 24.1 km
Overcast at a height of 1500 ft

METAR: CYPC 221800Z 35005KT 15SM OVC015 04/00 A2999 RMK SC8 SLP159

Time: 11:22 (17:22 UTC)

Forecast

The report was made 22 hours and 42 minutes ago, at 18:40 UTC
Forecast valid from 22 at 19 UTC to 22 at 23 UTC
Wind 8 kt from the North
Visibility: 10 km
Broken clouds at a height of 1500 ft
Temporary
from 22 at 19 UTC to 22 at 23 UTC
Scattered clouds at a height of 1500 ft

TAF: CYPC 221840Z 2219/2223 36008KT P6SM BKN015 TEMPO 2219/2223 SCT015 RMK NXT FCST BY 231500Z

Weather observations and forecasts of more than 4000 airports (METAR and TAF reports).

The available stations are represented by yellow and red dots on the map.

Hover mouse over dot to see the name of the station.

Then click to see weather observations and forecasts.

To change the map : click on the green buttons with a black cross to zoom in, on the green button with a dash to zoom out, or on the green arrows for adjacent maps.


METAR-TAF: